Time;durP1;ratioP1;P1;durP2;ratioP2;P2;SDS_P1;SDS_P2;PMS_P1;PMS_P2;Temp;Humidity;BMP_temperature;BMP_pressure;BME280_temperature;BME280_humidity;BME280_pressure;Samples;Min_cycle;Max_cycle;Signal;HPM_P1;HPM_P2
2023/08/08 00:00:18;;;;;;;3.50;3.30;;;21.10;77.20;;;;;;5081516;28;45685;-73
2023/08/08 00:02:47;;;;;;;3.47;3.37;;;21.00;77.70;;;;;;5084737;28;44708;-73
2023/08/08 00:05:15;;;;;;;3.27;3.17;;;21.10;77.40;;;;;;5085977;27;43369;-73
2023/08/08 00:07:44;;;;;;;3.27;3.17;;;21.20;77.20;;;;;;5082187;27;43770;-74
2023/08/08 00:10:11;;;;;;;3.73;3.53;;;21.20;76.90;;;;;;5083206;27;45666;-74
2023/08/08 00:12:39;;;;;;;3.30;3.20;;;21.20;76.80;;;;;;5079953;27;43432;-75
2023/08/08 00:15:08;;;;;;;3.30;3.20;;;21.20;77.00;;;;;;5079717;27;43440;-74
2023/08/08 00:17:36;;;;;;;3.33;3.23;;;21.20;77.20;;;;;;5078240;27;43424;-74
2023/08/08 00:20:08;;;;;;;3.43;3.33;;;21.20;77.20;;;;;;5082564;27;43654;-74
2023/08/08 00:22:36;;;;;;;3.27;3.17;;;21.10;76.90;;;;;;5081890;28;43397;-74
2023/08/08 00:25:04;;;;;;;3.40;3.30;;;21.10;77.00;;;;;;5081261;28;43394;-74
2023/08/08 00:27:32;;;;;;;3.50;3.40;;;21.10;77.30;;;;;;5080110;28;43941;-73
2023/08/08 00:30:01;;;;;;;3.10;3.00;;;21.00;77.60;;;;;;5083512;27;43594;-74
2023/08/08 00:32:29;;;;;;;3.07;2.97;;;21.00;77.50;;;;;;5077695;27;43446;-74
2023/08/08 00:34:58;;;;;;;2.80;2.70;;;21.00;77.30;;;;;;5083431;27;43426;-69
2023/08/08 00:37:27;;;;;;;3.37;3.27;;;21.00;77.30;;;;;;5082890;28;43589;-70
2023/08/08 00:39:55;;;;;;;2.60;2.50;;;20.90;77.50;;;;;;5077522;27;43590;-70
2023/08/08 00:42:23;;;;;;;3.23;3.13;;;20.90;77.90;;;;;;5078267;28;44190;-71
2023/08/08 00:44:53;;;;;;;3.10;3.00;;;20.90;77.70;;;;;;5083524;28;43905;-69
2023/08/08 00:47:21;;;;;;;3.10;3.00;;;20.90;77.50;;;;;;5080534;28;43397;-69
2023/08/08 00:49:49;;;;;;;3.00;2.90;;;20.90;77.50;;;;;;5081158;28;43661;-69
2023/08/08 00:52:17;;;;;;;3.20;3.10;;;20.90;77.90;;;;;;5081314;28;44402;-69
2023/08/08 00:54:46;;;;;;;3.10;3.00;;;20.90;78.10;;;;;;5078333;27;43394;-72
2023/08/08 00:57:14;;;;;;;2.73;2.63;;;21.00;77.70;;;;;;5082205;27;43572;-73
2023/08/08 00:59:42;;;;;;;3.03;2.93;;;21.20;77.20;;;;;;5082631;28;45705;-74
2023/08/08 01:02:10;;;;;;;2.90;2.80;;;21.30;76.80;;;;;;5073757;28;44919;-70
2023/08/08 01:04:38;;;;;;;3.00;2.90;;;21.40;76.40;;;;;;5081822;28;43448;-70
2023/08/08 01:07:09;;;;;;;2.90;2.80;;;21.40;76.20;;;;;;5082074;27;43520;-70
2023/08/08 01:09:38;;;;;;;2.57;2.57;;;21.30;76.20;;;;;;5080351;28;45815;-70
2023/08/08 01:12:08;;;;;;;2.80;2.70;;;21.30;76.40;;;;;;5084778;27;43520;-69
2023/08/08 01:14:36;;;;;;;2.70;2.60;;;21.20;77.10;;;;;;5084851;28;43445;-69
2023/08/08 01:17:04;;;;;;;2.93;2.83;;;21.20;77.10;;;;;;5078242;28;44016;-70
2023/08/08 01:19:34;;;;;;;2.70;2.60;;;21.20;77.10;;;;;;5084790;28;43610;-69
2023/08/08 01:22:03;;;;;;;2.77;2.67;;;21.10;76.90;;;;;;5082794;28;43448;-70
2023/08/08 01:24:36;;;;;;;2.60;2.50;;;21.00;76.90;;;;;;5081124;27;43488;-69
2023/08/08 01:27:05;;;;;;;3.00;2.90;;;21.00;77.50;;;;;;5083200;28;43407;-70
2023/08/08 01:29:33;;;;;;;2.20;2.20;;;21.00;77.60;;;;;;5081542;27;43579;-69
2023/08/08 01:32:01;;;;;;;2.47;2.47;;;21.00;77.50;;;;;;5081447;28;43391;-70
2023/08/08 01:34:29;;;;;;;2.50;2.50;;;21.00;77.30;;;;;;5083514;28;43393;-70
2023/08/08 01:37:00;;;;;;;2.90;2.80;;;20.90;77.30;;;;;;5075083;28;43997;-70
2023/08/08 01:39:28;;;;;;;2.23;2.23;;;20.90;77.90;;;;;;5083248;28;44054;-70
2023/08/08 01:41:58;;;;;;;2.30;2.30;;;21.00;77.90;;;;;;5083301;27;44863;-70
2023/08/08 01:44:26;;;;;;;2.23;2.23;;;21.10;77.40;;;;;;5079455;27;43353;-70
2023/08/08 01:46:54;;;;;;;2.50;2.50;;;21.20;77.00;;;;;;5080591;28;43395;-70
2023/08/08 01:49:22;;;;;;;2.40;2.40;;;21.30;76.40;;;;;;5075893;27;45645;-69
2023/08/08 01:51:50;;;;;;;2.60;2.50;;;21.40;76.20;;;;;;5083537;28;43407;-69
2023/08/08 01:54:18;;;;;;;2.40;2.40;;;21.40;76.10;;;;;;5073254;28;43385;-69
2023/08/08 01:56:46;;;;;;;2.40;2.40;;;21.30;76.10;;;;;;5078408;28;43578;-70
2023/08/08 01:59:16;;;;;;;2.53;2.53;;;21.30;76.30;;;;;;5075322;28;46091;-70
2023/08/08 02:01:44;;;;;;;2.40;2.30;;;21.20;77.00;;;;;;5070507;28;45136;-69
2023/08/08 02:04:12;;;;;;;2.53;2.47;;;21.20;77.70;;;;;;5068192;28;43459;-69
2023/08/08 02:06:40;;;;;;;2.10;2.10;;;21.10;76.90;;;;;;5065889;28;44016;-73
2023/08/08 02:09:08;;;;;;;2.00;2.00;;;21.10;76.90;;;;;;5074883;28;45392;-74
2023/08/08 02:11:36;;;;;;;2.30;2.30;;;21.00;77.00;;;;;;5077565;28;43361;-73
2023/08/08 02:14:04;;;;;;;2.20;2.20;;;21.00;77.50;;;;;;5065895;28;43432;-74
2023/08/08 02:16:34;;;;;;;2.10;2.10;;;21.00;77.50;;;;;;5072718;28;43944;-69
2023/08/08 02:19:02;;;;;;;2.10;2.10;;;21.00;77.30;;;;;;5078004;28;45976;-70
2023/08/08 02:21:30;;;;;;;2.23;2.23;;;21.00;77.30;;;;;;5069618;28;43463;-70
2023/08/08 02:23:58;;;;;;;2.20;2.20;;;20.90;77.50;;;;;;5081442;27;43420;-70
2023/08/08 02:26:26;;;;;;;2.40;2.30;;;20.90;77.80;;;;;;5084231;27;43954;-70
2023/08/08 02:28:54;;;;;;;2.27;2.27;;;21.00;77.50;;;;;;5078840;28;43661;-70
2023/08/08 02:31:22;;;;;;;2.20;2.20;;;21.10;77.00;;;;;;5075440;27;43968;-71
2023/08/08 02:33:52;;;;;;;2.43;2.43;;;21.30;76.50;;;;;;5069931;27;43466;-70
2023/08/08 02:36:20;;;;;;;2.03;2.03;;;21.40;76.20;;;;;;5082855;27;43927;-72
2023/08/08 02:38:49;;;;;;;2.00;2.00;;;21.40;76.10;;;;;;5081495;28;45687;-72
2023/08/08 02:41:17;;;;;;;2.10;2.10;;;21.30;76.20;;;;;;5072253;28;44479;-72
2023/08/08 02:43:46;;;;;;;1.90;1.90;;;21.20;76.30;;;;;;5080372;27;43503;-72
2023/08/08 02:46:14;;;;;;;2.13;2.13;;;21.10;76.90;;;;;;5075945;28;43552;-73
2023/08/08 02:48:42;;;;;;;1.90;1.90;;;21.10;77.20;;;;;;5086284;28;45909;-73
2023/08/08 02:51:12;;;;;;;2.03;2.03;;;21.10;77.10;;;;;;5075262;28;44659;-73
2023/08/08 02:53:40;;;;;;;2.03;2.03;;;21.00;76.90;;;;;;5079839;28;43455;-73
2023/08/08 02:56:08;;;;;;;2.13;2.13;;;21.00;77.10;;;;;;5083175;28;43465;-72
2023/08/08 02:58:40;;;;;;;2.10;2.10;;;21.00;77.70;;;;;;5075115;28;46034;-73
2023/08/08 03:01:08;;;;;;;2.10;2.10;;;21.00;77.60;;;;;;5075147;28;44717;-72
2023/08/08 03:03:37;;;;;;;2.00;2.00;;;20.90;77.30;;;;;;5075529;28;43382;-73
2023/08/08 03:06:06;;;;;;;2.00;2.00;;;20.90;77.20;;;;;;5080435;28;43554;-73
2023/08/08 03:08:35;;;;;;;1.83;1.83;;;20.90;77.30;;;;;;5079234;28;45762;-72
2023/08/08 03:11:05;;;;;;;1.97;1.97;;;20.90;77.90;;;;;;5078957;28;44807;-72
2023/08/08 03:13:34;;;;;;;2.07;1.97;;;20.90;77.70;;;;;;5084334;27;43454;-72
2023/08/08 03:16:02;;;;;;;1.83;1.83;;;21.00;77.30;;;;;;5079033;28;43602;-70
2023/08/08 03:18:30;;;;;;;2.07;2.07;;;21.20;76.90;;;;;;5077645;27;45684;-69
2023/08/08 03:20:58;;;;;;;1.60;1.60;;;21.30;76.30;;;;;;5079757;28;45313;-70
2023/08/08 03:23:27;;;;;;;1.87;1.87;;;21.40;76.10;;;;;;5073239;28;43438;-70
2023/08/08 03:25:57;;;;;;;1.80;1.80;;;21.30;76.00;;;;;;5080692;28;43566;-70
2023/08/08 03:28:26;;;;;;;1.70;1.70;;;21.20;76.10;;;;;;5078396;28;43999;-70
2023/08/08 03:30:56;;;;;;;1.87;1.87;;;21.20;76.30;;;;;;5080432;28;44925;-71
2023/08/08 03:33:25;;;;;;;1.70;1.70;;;21.10;76.90;;;;;;5074846;28;43395;-70
2023/08/08 03:35:53;;;;;;;1.90;1.90;;;21.10;77.00;;;;;;5078476;27;43476;-69
2023/08/08 03:38:21;;;;;;;1.90;1.80;;;21.10;77.00;;;;;;5079287;28;44624;-70
2023/08/08 03:40:49;;;;;;;1.93;1.93;;;21.00;76.90;;;;;;5083249;27;43426;-70
2023/08/08 03:43:19;;;;;;;1.67;1.67;;;21.00;77.10;;;;;;5079208;27;43433;-69
2023/08/08 03:45:49;;;;;;;1.90;1.90;;;20.90;77.60;;;;;;5085052;28;43453;-70
2023/08/08 03:48:18;;;;;;;1.80;1.80;;;20.90;77.50;;;;;;5076600;27;45448;-70
2023/08/08 03:50:46;;;;;;;1.80;1.80;;;20.90;77.30;;;;;;5080325;28;43738;-69
2023/08/08 03:53:14;;;;;;;1.90;1.90;;;20.90;77.20;;;;;;5080372;27;43466;-70
2023/08/08 03:55:43;;;;;;;1.53;1.53;;;20.90;77.30;;;;;;5078484;28;43562;-69
2023/08/08 03:58:11;;;;;;;1.70;1.70;;;20.80;77.80;;;;;;5076720;27;43898;-69
2023/08/08 04:00:45;;;;;;;1.70;1.70;;;20.90;77.80;;;;;;5078402;28;45128;-70
2023/08/08 04:03:14;;;;;;;1.70;1.70;;;20.90;77.50;;;;;;5079334;28;43522;-69
2023/08/08 04:05:42;;;;;;;1.63;1.63;;;20.90;77.50;;;;;;5082464;28;43509;-70
2023/08/08 04:08:10;;;;;;;1.77;1.77;;;20.80;77.70;;;;;;5077373;27;45301;-72
2023/08/08 04:10:38;;;;;;;1.60;1.60;;;20.80;78.00;;;;;;5078502;28;43449;-70
2023/08/08 04:13:06;;;;;;;1.70;1.70;;;20.90;77.90;;;;;;5079575;28;43479;-70
2023/08/08 04:15:34;;;;;;;1.57;1.57;;;21.00;77.30;;;;;;5084020;27;43494;-69
2023/08/08 04:18:06;;;;;;;1.53;1.53;;;21.20;76.90;;;;;;5087651;28;46145;-71
2023/08/08 04:20:34;;;;;;;1.50;1.50;;;21.30;76.30;;;;;;5084368;28;44003;-70
2023/08/08 04:23:02;;;;;;;1.60;1.60;;;21.30;76.00;;;;;;5073963;28;43387;-70
2023/08/08 04:25:31;;;;;;;1.70;1.70;;;21.30;75.90;;;;;;5081838;28;43436;-74
2023/08/08 04:27:59;;;;;;;1.60;1.60;;;21.20;76.00;;;;;;5083362;28;43933;-73
2023/08/08 04:30:27;;;;;;;1.80;1.80;;;21.20;76.40;;;;;;5077154;27;45505;-74
2023/08/08 04:32:56;;;;;;;1.53;1.53;;;21.10;76.70;;;;;;5084814;27;43438;-73
2023/08/08 04:35:27;;;;;;;1.60;1.60;;;21.10;76.80;;;;;;5085509;28;43958;-74
2023/08/08 04:37:55;;;;;;;1.50;1.50;;;21.10;76.70;;;;;;5078158;27;43689;-73
2023/08/08 04:40:23;;;;;;;1.60;1.60;;;21.00;76.70;;;;;;5079875;27;43474;-74
2023/08/08 04:42:52;;;;;;;1.53;1.53;;;21.00;77.40;;;;;;5084071;28;43411;-74
2023/08/08 04:45:20;;;;;;;1.60;1.60;;;20.90;77.40;;;;;;5080278;28;43416;-74
2023/08/08 04:47:48;;;;;;;1.63;1.53;;;20.90;77.20;;;;;;5067598;28;44801;-74
2023/08/08 04:50:16;;;;;;;1.73;1.73;;;20.90;77.10;;;;;;5072366;28;43384;-74
2023/08/08 04:52:46;;;;;;;1.40;1.40;;;20.90;77.20;;;;;;5066861;28;43447;-73
2023/08/08 04:55:14;;;;;;;1.53;1.53;;;20.80;77.80;;;;;;5070260;28;43366;-74
2023/08/08 04:57:42;;;;;;;1.60;1.60;;;20.90;77.50;;;;;;5073843;28;43782;-74
2023/08/08 05:00:11;;;;;;;1.50;1.50;;;21.00;77.10;;;;;;5085379;27;43707;-74
2023/08/08 05:02:40;;;;;;;1.50;1.50;;;21.20;76.70;;;;;;5062977;28;43439;-74
2023/08/08 05:05:09;;;;;;;1.50;1.50;;;21.30;76.20;;;;;;5078575;28;43507;-73
2023/08/08 05:07:37;;;;;;;1.50;1.50;;;21.30;76.00;;;;;;5079180;28;46008;-73
2023/08/08 05:10:08;;;;;;;1.40;1.40;;;21.30;76.00;;;;;;5084482;27;43379;-73
2023/08/08 05:12:36;;;;;;;1.40;1.40;;;21.20;76.10;;;;;;5076675;28;43438;-73
2023/08/08 05:15:04;;;;;;;1.53;1.53;;;21.10;76.30;;;;;;5082554;27;43429;-74
2023/08/08 05:17:32;;;;;;;1.50;1.50;;;21.10;77.00;;;;;;5086646;27;43681;-74
2023/08/08 05:20:00;;;;;;;1.40;1.40;;;21.10;77.00;;;;;;5080845;27;43486;-74
2023/08/08 05:22:28;;;;;;;1.67;1.67;;;21.00;76.80;;;;;;5073997;27;43429;-73
2023/08/08 05:24:56;;;;;;;1.47;1.47;;;21.00;76.80;;;;;;5085891;27;43387;-73
2023/08/08 05:27:25;;;;;;;1.70;1.70;;;20.90;77.00;;;;;;5077254;28;43607;-73
2023/08/08 05:29:53;;;;;;;1.40;1.40;;;20.90;77.50;;;;;;5082058;28;44707;-73
2023/08/08 05:32:21;;;;;;;1.43;1.43;;;20.90;77.40;;;;;;5085290;27;43453;-74
2023/08/08 05:34:51;;;;;;;1.30;1.30;;;20.90;77.20;;;;;;5076580;27;43389;-72
2023/08/08 05:37:19;;;;;;;1.20;1.20;;;20.90;77.20;;;;;;5087851;27;44150;-70
2023/08/08 05:39:47;;;;;;;1.30;1.30;;;20.90;77.50;;;;;;5081025;27;44490;-70
2023/08/08 05:42:15;;;;;;;1.50;1.50;;;20.90;77.90;;;;;;5083961;27;43374;-70
2023/08/08 05:44:45;;;;;;;1.37;1.37;;;20.90;77.50;;;;;;5086223;27;44043;-70
2023/08/08 05:47:13;;;;;;;1.60;1.50;;;21.00;77.00;;;;;;5084055;27;43702;-70
2023/08/08 05:49:42;;;;;;;1.40;1.40;;;21.20;76.50;;;;;;5081046;27;43400;-70
2023/08/08 05:52:10;;;;;;;1.40;1.40;;;21.30;76.10;;;;;;5082848;28;43429;-70
2023/08/08 05:54:38;;;;;;;1.20;1.20;;;21.30;75.90;;;;;;5080812;28;43580;-70
2023/08/08 05:57:07;;;;;;;1.33;1.33;;;21.20;75.90;;;;;;5088223;28;43918;-70
2023/08/08 05:59:35;;;;;;;1.47;1.47;;;21.20;76.20;;;;;;5078729;28;44695;-69
2023/08/08 06:02:05;;;;;;;1.53;1.53;;;21.10;76.70;;;;;;5078264;27;43429;-69
2023/08/08 06:04:33;;;;;;;1.50;1.50;;;21.00;76.80;;;;;;5080418;28;43921;-69
2023/08/08 06:07:01;;;;;;;1.43;1.43;;;21.00;76.70;;;;;;5080219;27;43790;-71
2023/08/08 06:09:31;;;;;;;1.63;1.63;;;21.00;76.70;;;;;;5076191;28;44622;-70
2023/08/08 06:11:59;;;;;;;1.47;1.37;;;20.90;76.80;;;;;;5082639;27;43474;-70
2023/08/08 06:14:27;;;;;;;1.50;1.50;;;20.90;77.20;;;;;;5084440;28;43374;-69
2023/08/08 06:16:55;;;;;;;1.30;1.30;;;20.90;77.50;;;;;;5085332;28;46106;-71
2023/08/08 06:19:25;;;;;;;1.30;1.30;;;20.90;77.30;;;;;;5081131;28;43467;-69
2023/08/08 06:21:52;;;;;;;1.30;1.30;;;20.90;77.20;;;;;;5081307;28;43341;-69
2023/08/08 06:24:20;;;;;;;1.47;1.47;;;20.90;77.30;;;;;;5084367;27;43380;-69
2023/08/08 06:26:48;;;;;;;1.40;1.40;;;20.80;77.60;;;;;;5087326;27;44048;-70
2023/08/08 06:29:16;;;;;;;1.47;1.47;;;20.80;77.80;;;;;;5072507;28;44983;-70
2023/08/08 06:31:44;;;;;;;1.40;1.40;;;20.90;77.40;;;;;;5070789;28;43499;-70
2023/08/08 06:34:12;;;;;;;1.50;1.50;;;21.10;77.00;;;;;;5073216;28;43494;-69
2023/08/08 06:36:42;;;;;;;1.23;1.23;;;21.20;76.50;;;;;;5081042;27;44359;-69
2023/08/08 06:39:11;;;;;;;1.40;1.40;;;21.20;76.20;;;;;;5081347;27;43806;-69
2023/08/08 06:41:41;;;;;;;1.27;1.27;;;21.20;76.20;;;;;;5083026;27;43495;-70
2023/08/08 06:44:10;;;;;;;1.23;1.23;;;21.20;76.20;;;;;;5063895;28;43470;-70
2023/08/08 06:46:38;;;;;;;1.20;1.20;;;21.10;77.10;;;;;;5069172;28;43952;-70
2023/08/08 06:49:08;;;;;;;1.47;1.40;;;21.00;77.00;;;;;;5069333;28;44705;-70
2023/08/08 06:51:36;;;;;;;1.37;1.37;;;21.00;77.00;;;;;;5066195;28;43811;-69
2023/08/08 06:54:07;;;;;;;1.30;1.30;;;21.00;76.90;;;;;;5074016;27;43423;-69
2023/08/08 06:56:35;;;;;;;1.30;1.30;;;21.00;76.90;;;;;;5082474;28;46069;-70
2023/08/08 06:59:03;;;;;;;1.17;1.17;;;20.90;76.90;;;;;;5075472;28;44688;-69
2023/08/08 07:01:33;;;;;;;1.30;1.30;;;20.90;77.50;;;;;;5077535;28;43437;-70
2023/08/08 07:04:01;;;;;;;1.40;1.40;;;20.90;77.40;;;;;;5076886;28;43995;-69
2023/08/08 07:06:29;;;;;;;1.30;1.30;;;20.90;77.20;;;;;;5083518;28;45828;-69
2023/08/08 07:08:58;;;;;;;1.30;1.30;;;20.90;77.20;;;;;;5074975;27;43506;-69
2023/08/08 07:11:28;;;;;;;1.37;1.37;;;20.80;77.20;;;;;;5083808;28;43374;-70
2023/08/08 07:13:56;;;;;;;1.10;1.10;;;20.80;77.70;;;;;;5067079;27;43292;-70
2023/08/08 07:16:24;;;;;;;1.50;1.50;;;20.90;78.20;;;;;;5078940;28;43923;-69
2023/08/08 07:18:52;;;;;;;1.33;1.33;;;21.00;77.00;;;;;;5084789;27;43387;-70
2023/08/08 07:21:23;;;;;;;1.20;1.20;;;21.20;76.60;;;;;;5069903;28;43418;-69
2023/08/08 07:23:51;;;;;;;1.30;1.30;;;21.30;76.10;;;;;;5079193;28;43925;-70
2023/08/08 07:26:19;;;;;;;1.17;1.17;;;21.30;76.00;;;;;;5082256;27;44322;-69
2023/08/08 07:28:49;;;;;;;1.20;1.20;;;21.20;75.90;;;;;;5072224;27;43507;-71
2023/08/08 07:31:17;;;;;;;1.00;1.00;;;21.20;76.20;;;;;;5063929;28;43474;-70
2023/08/08 07:33:45;;;;;;;1.00;1.00;;;21.10;76.50;;;;;;5074011;28;43525;-70
2023/08/08 07:36:13;;;;;;;1.10;1.10;;;21.10;76.90;;;;;;5078422;27;43976;-69
2023/08/08 07:38:41;;;;;;;1.40;1.40;;;21.00;76.70;;;;;;5067434;28;43982;-70
2023/08/08 07:41:09;;;;;;;1.00;1.00;;;21.00;76.70;;;;;;5063808;28;43507;-70
2023/08/08 07:43:37;;;;;;;1.30;1.30;;;21.00;76.90;;;;;;5081063;28;43479;-70
2023/08/08 07:46:07;;;;;;;1.20;1.20;;;20.90;77.30;;;;;;5080340;27;43761;-70
2023/08/08 07:48:35;;;;;;;0.97;0.97;;;20.90;77.30;;;;;;5085062;28;43375;-69
2023/08/08 07:51:03;;;;;;;1.20;1.20;;;21.00;76.90;;;;;;5071423;27;43593;-70
2023/08/08 07:53:31;;;;;;;1.13;1.13;;;21.10;76.60;;;;;;5090632;28;43396;-70
2023/08/08 07:56:01;;;;;;;1.00;1.00;;;21.10;76.40;;;;;;5078231;28;45708;-72
2023/08/08 07:58:29;;;;;;;1.03;1.03;;;21.10;76.30;;;;;;5076449;28;43351;-73
2023/08/08 08:00:58;;;;;;;1.07;1.07;;;21.10;76.80;;;;;;5064634;28;43517;-72
2023/08/08 08:03:31;;;;;;;1.17;1.17;;;21.10;76.70;;;;;;5071174;28;43628;-72
2023/08/08 08:05:59;;;;;;;0.93;0.93;;;21.00;76.50;;;;;;5088437;27;43831;-73
2023/08/08 08:08:27;;;;;;;1.30;1.30;;;21.00;76.60;;;;;;5065267;28;45377;-73
2023/08/08 08:10:55;;;;;;;1.20;1.20;;;21.00;76.70;;;;;;5078239;28;43812;-72
2023/08/08 08:13:23;;;;;;;1.10;1.10;;;20.90;77.30;;;;;;5081138;28;43430;-72
2023/08/08 08:15:51;;;;;;;1.10;1.10;;;20.90;77.10;;;;;;5076108;28;43627;-72
2023/08/08 08:18:20;;;;;;;1.10;1.10;;;20.90;77.00;;;;;;5078079;28;43446;-72
2023/08/08 08:20:49;;;;;;;1.20;1.20;;;20.90;77.00;;;;;;5074143;28;43450;-73
2023/08/08 08:23:17;;;;;;;1.10;1.10;;;20.80;77.10;;;;;;5076686;28;43452;-72
2023/08/08 08:25:45;;;;;;;1.10;1.10;;;20.80;77.60;;;;;;5080693;28;43581;-72
2023/08/08 08:28:14;;;;;;;1.10;1.10;;;20.90;77.40;;;;;;5075835;28;43456;-72
2023/08/08 08:30:42;;;;;;;1.10;1.10;;;21.00;76.90;;;;;;5080792;28;43455;-72
2023/08/08 08:33:10;;;;;;;1.10;1.10;;;21.20;76.50;;;;;;5061100;28;43405;-72
2023/08/08 08:35:38;;;;;;;1.20;1.20;;;21.20;76.10;;;;;;5069502;28;44515;-72
2023/08/08 08:38:08;;;;;;;1.03;1.03;;;21.20;76.00;;;;;;5069142;28;44680;-71
2023/08/08 08:40:39;;;;;;;0.90;0.90;;;21.20;76.20;;;;;;5078067;27;43353;-72
2023/08/08 08:43:07;;;;;;;0.97;0.97;;;21.10;76.40;;;;;;5075298;28;43903;-72
2023/08/08 08:45:39;;;;;;;1.10;1.10;;;21.00;76.90;;;;;;5067930;28;43882;-73
2023/08/08 08:48:09;;;;;;;1.10;1.10;;;21.00;77.00;;;;;;5079397;28;43425;-72
2023/08/08 08:50:37;;;;;;;1.10;1.10;;;21.00;76.90;;;;;;5081908;28;43394;-73
2023/08/08 08:53:06;;;;;;;1.10;1.10;;;20.90;76.80;;;;;;5079731;28;43406;-73
2023/08/08 08:55:34;;;;;;;1.10;1.10;;;20.90;77.00;;;;;;5077892;27;43697;-72
2023/08/08 08:58:02;;;;;;;1.03;1.03;;;20.80;77.50;;;;;;5085465;28;43461;-72
2023/08/08 09:00:31;;;;;;;0.90;0.90;;;20.90;77.50;;;;;;5079204;28;44031;-72
2023/08/08 09:02:59;;;;;;;0.93;0.93;;;20.80;77.20;;;;;;5082564;28;43423;-72
2023/08/08 09:05:27;;;;;;;1.10;1.10;;;20.80;77.20;;;;;;5082931;28;43720;-69
2023/08/08 09:07:55;;;;;;;1.10;1.10;;;20.80;77.40;;;;;;5082950;28;43472;-70
2023/08/08 09:10:25;;;;;;;1.10;1.10;;;20.80;77.80;;;;;;5079742;28;43433;-69
2023/08/08 09:12:53;;;;;;;1.00;1.00;;;20.90;78.20;;;;;;5081191;27;43510;-69
2023/08/08 09:15:21;;;;;;;1.00;1.00;;;21.00;77.10;;;;;;5078259;28;46078;-70
2023/08/08 09:17:49;;;;;;;1.10;1.10;;;21.10;76.50;;;;;;5083178;27;43442;-70
2023/08/08 09:20:18;;;;;;;1.10;1.10;;;21.20;76.20;;;;;;5072042;28;43997;-69
2023/08/08 09:22:46;;;;;;;1.00;1.00;;;21.30;76.00;;;;;;5079271;27;43472;-69
2023/08/08 09:25:14;;;;;;;1.00;1.00;;;21.20;76.00;;;;;;5083825;28;45810;-70
2023/08/08 09:27:43;;;;;;;1.07;1.07;;;21.10;76.10;;;;;;5080568;28;44423;-69
2023/08/08 09:30:12;;;;;;;1.10;1.10;;;21.00;76.60;;;;;;5073855;27;43469;-70
2023/08/08 09:32:40;;;;;;;1.00;1.00;;;21.00;76.90;;;;;;5077931;28;43502;-69
2023/08/08 09:35:10;;;;;;;0.90;0.90;;;21.00;76.90;;;;;;5079870;27;43609;-70
2023/08/08 09:37:38;;;;;;;1.00;1.00;;;20.90;76.90;;;;;;5076245;28;43967;-70
2023/08/08 09:40:07;;;;;;;0.90;0.90;;;20.90;77.00;;;;;;5074719;28;43399;-70
2023/08/08 09:42:36;;;;;;;0.80;0.80;;;20.80;77.30;;;;;;5072621;28;43430;-69
2023/08/08 09:45:07;;;;;;;0.90;0.90;;;20.90;77.50;;;;;;5072522;28;43610;-69
2023/08/08 09:47:37;;;;;;;1.20;1.20;;;20.80;77.30;;;;;;5077402;28;43496;-69
2023/08/08 09:50:06;;;;;;;1.00;1.00;;;20.80;77.30;;;;;;5076009;28;43414;-70
2023/08/08 09:52:34;;;;;;;0.97;0.97;;;20.80;77.40;;;;;;5076087;28;43404;-69
2023/08/08 09:55:02;;;;;;;0.80;0.80;;;20.80;77.80;;;;;;5080151;28;43736;-71
2023/08/08 09:57:30;;;;;;;1.00;1.00;;;20.80;78.30;;;;;;5081748;28;44713;-69
2023/08/08 09:59:58;;;;;;;0.80;0.80;;;20.80;77.60;;;;;;5073721;28;43529;-70
2023/08/08 10:02:27;;;;;;;1.20;1.20;;;20.80;77.50;;;;;;5079687;28;43453;-70
2023/08/08 10:04:58;;;;;;;1.13;1.13;;;20.70;77.50;;;;;;5078981;27;43721;-70
2023/08/08 10:07:26;;;;;;;1.17;1.17;;;20.70;77.80;;;;;;5085680;28;43902;-69
2023/08/08 10:09:54;;;;;;;1.20;1.20;;;20.80;77.80;;;;;;5083169;28;43391;-70
2023/08/08 10:12:22;;;;;;;1.03;1.03;;;20.90;77.40;;;;;;5087206;28;43394;-70
2023/08/08 10:14:50;;;;;;;1.00;1.00;;;21.10;77.00;;;;;;5074367;28;44046;-70
2023/08/08 10:17:19;;;;;;;0.90;0.90;;;21.20;76.50;;;;;;5067211;28;43540;-70
2023/08/08 10:19:54;;;;;;;1.00;1.00;;;21.20;76.20;;;;;;5068028;28;43388;-69
2023/08/08 10:22:23;;;;;;;0.80;0.80;;;21.20;76.10;;;;;;5067583;27;43593;-70
2023/08/08 10:24:52;;;;;;;1.10;1.10;;;21.10;76.20;;;;;;5068909;28;45912;-70
2023/08/08 10:27:30;;;;;;;1.03;1.03;;;21.10;76.50;;;;;;5069842;28;43369;-70
2023/08/08 10:30:03;;;;;;;1.00;1.00;;;21.00;77.00;;;;;;5082182;28;43987;-72
2023/08/08 10:32:38;;;;;;;1.00;1.00;;;21.00;76.90;;;;;;5077899;28;43561;-70
2023/08/08 10:35:08;;;;;;;0.90;0.90;;;21.00;76.90;;;;;;5082400;28;43611;-70
2023/08/08 10:37:37;;;;;;;1.00;1.00;;;20.90;77.00;;;;;;5084510;28;43461;-69
2023/08/08 10:40:06;;;;;;;0.90;0.90;;;20.90;77.20;;;;;;5077084;28;43869;-70
2023/08/08 10:42:42;;;;;;;0.90;0.90;;;20.80;77.50;;;;;;5076852;28;44019;-70
2023/08/08 10:45:12;;;;;;;0.90;0.90;;;20.90;77.40;;;;;;5070218;28;43969;-69
2023/08/08 10:47:40;;;;;;;0.90;0.90;;;20.90;77.40;;;;;;5074229;28;44377;-69
2023/08/08 10:50:11;;;;;;;1.00;1.00;;;20.80;77.40;;;;;;5077677;28;43372;-70
2023/08/08 10:52:50;;;;;;;1.00;1.00;;;20.80;77.70;;;;;;5066480;28;43631;-70
2023/08/08 10:55:21;;;;;;;0.90;0.90;;;20.80;77.80;;;;;;5074172;28;43759;-70
2023/08/08 10:57:56;;;;;;;0.90;0.90;;;21.00;77.40;;;;;;5062995;28;44599;-70
2023/08/08 11:00:27;;;;;;;0.90;0.90;;;21.10;76.90;;;;;;5072875;28;43506;-70
2023/08/08 11:02:55;;;;;;;1.00;1.00;;;21.20;76.40;;;;;;5071077;28;43486;-69
2023/08/08 11:05:26;;;;;;;1.03;1.03;;;21.20;76.10;;;;;;5076769;27;43846;-69
2023/08/08 11:07:54;;;;;;;1.00;1.00;;;21.20;76.10;;;;;;5071849;28;43425;-70
2023/08/08 11:10:23;;;;;;;0.90;0.90;;;21.20;76.30;;;;;;5073388;27;43371;-70
2023/08/08 11:12:58;;;;;;;1.00;1.00;;;21.10;76.50;;;;;;5065049;28;43399;-69
2023/08/08 11:15:27;;;;;;;0.90;0.90;;;21.00;76.90;;;;;;5075156;28;43594;-70
2023/08/08 11:17:56;;;;;;;0.90;0.90;;;21.00;76.90;;;;;;5078354;28;43465;-69
2023/08/08 11:20:25;;;;;;;1.10;1.10;;;21.00;76.90;;;;;;5083662;28;43465;-69
2023/08/08 11:22:54;;;;;;;0.90;0.90;;;20.90;77.00;;;;;;5085121;28;43675;-70
2023/08/08 11:25:22;;;;;;;1.00;1.00;;;20.80;77.20;;;;;;5086364;28;43997;-73
2023/08/08 11:27:52;;;;;;;0.90;0.90;;;20.80;77.40;;;;;;5081665;27;44501;-73
2023/08/08 11:30:20;;;;;;;0.90;0.90;;;20.80;77.30;;;;;;5086309;28;43523;-73
2023/08/08 11:32:48;;;;;;;1.00;1.00;;;20.90;77.40;;;;;;5081328;27;43352;-73
2023/08/08 11:35:37;;;;;;;0.73;0.73;;;20.90;77.50;;;;;;5078603;27;43855;-73
2023/08/08 11:38:05;;;;;;;0.90;0.90;;;20.80;77.70;;;;;;5075801;28;44099;-73
2023/08/08 11:40:33;;;;;;;0.80;0.80;;;20.80;77.70;;;;;;5074867;28;44011;-73
2023/08/08 11:43:01;;;;;;;0.90;0.90;;;21.00;77.40;;;;;;5076988;28;43814;-73
2023/08/08 11:45:29;;;;;;;0.90;0.90;;;21.10;76.80;;;;;;5077736;28;43922;-74
2023/08/08 11:47:58;;;;;;;1.00;0.97;;;21.20;76.40;;;;;;5074161;27;43949;-74
2023/08/08 11:50:27;;;;;;;0.90;0.90;;;21.20;76.00;;;;;;5073556;28;43520;-73
2023/08/08 11:52:56;;;;;;;0.80;0.80;;;21.20;76.20;;;;;;5077621;28;43363;-73
2023/08/08 11:55:28;;;;;;;1.00;1.00;;;21.10;76.40;;;;;;5076437;28;43907;-74
2023/08/08 11:57:59;;;;;;;0.90;0.90;;;21.00;76.60;;;;;;5083619;28;43944;-73
2023/08/08 12:00:30;;;;;;;0.90;0.90;;;21.00;76.90;;;;;;5078763;28;43435;-73
2023/08/08 12:02:59;;;;;;;1.00;1.00;;;21.00;76.90;;;;;;5079227;28;43413;-74
2023/08/08 12:05:27;;;;;;;0.80;0.80;;;20.90;76.90;;;;;;5084088;28;43669;-74
2023/08/08 12:07:56;;;;;;;0.97;0.97;;;20.90;77.00;;;;;;5081554;27;43442;-72
2023/08/08 12:10:25;;;;;;;0.80;0.80;;;20.90;77.30;;;;;;5084676;28;43407;-74
2023/08/08 12:12:54;;;;;;;0.87;0.87;;;20.80;77.30;;;;;;5077226;27;43896;-73
2023/08/08 12:15:22;;;;;;;0.83;0.83;;;20.80;77.30;;;;;;5082297;27;43591;-74
2023/08/08 12:17:50;;;;;;;0.90;0.90;;;20.80;77.30;;;;;;5081313;28;43454;-74
2023/08/08 12:20:19;;;;;;;0.90;0.90;;;20.90;77.50;;;;;;5082400;27;43423;-73
2023/08/08 12:22:47;;;;;;;0.90;0.90;;;20.80;77.70;;;;;;5082920;28;43952;-73
2023/08/08 12:25:17;;;;;;;0.80;0.80;;;20.90;77.90;;;;;;5073566;28;45744;-73
2023/08/08 12:27:45;;;;;;;0.80;0.80;;;21.00;77.20;;;;;;5087305;28;43409;-73
2023/08/08 12:30:13;;;;;;;0.90;0.90;;;21.10;77.60;;;;;;5075927;28;43363;-73
2023/08/08 12:32:41;;;;;;;0.97;0.97;;;21.20;76.30;;;;;;5077234;28;43465;-73
2023/08/08 12:35:10;;;;;;;0.90;0.90;;;21.20;76.00;;;;;;5074721;28;43924;-73
2023/08/08 12:37:38;;;;;;;0.80;0.80;;;21.20;76.10;;;;;;5081671;28;43307;-72
2023/08/08 12:40:07;;;;;;;0.90;0.90;;;21.20;76.30;;;;;;5079806;28;43393;-72
2023/08/08 12:42:36;;;;;;;1.07;1.07;;;21.10;76.40;;;;;;5079572;28;43371;-72
2023/08/08 12:45:05;;;;;;;0.87;0.87;;;21.00;76.90;;;;;;5074877;28;43872;-72
2023/08/08 12:47:36;;;;;;;0.90;0.90;;;21.00;76.90;;;;;;5075641;28;44148;-72
2023/08/08 12:50:04;;;;;;;0.90;0.90;;;21.00;76.90;;;;;;5064210;28;43442;-72
2023/08/08 12:52:32;;;;;;;0.90;0.90;;;20.90;77.00;;;;;;5064617;28;43496;-72
2023/08/08 12:55:00;;;;;;;0.97;0.97;;;20.90;77.20;;;;;;5073432;27;43593;-72